Time;durP1;ratioP1;P1;durP2;ratioP2;P2;SDS_P1;SDS_P2;PMS_P1;PMS_P2;Temp;Humidity;BMP_temperature;BMP_pressure;BME280_temperature;BME280_humidity;BME280_pressure;Samples;Min_cycle;Max_cycle;Signal;HPM_P1;HPM_P2
2023/10/20 00:02:22;;;;;;;4.15;1.45;;;15.10;99.90;;;;;;4970493;28;20059;-76
2023/10/20 00:04:48;;;;;;;2.83;1.50;;;15.10;99.90;;;;;;4971863;28;20323;-76
2023/10/20 00:07:14;;;;;;;2.63;1.27;;;15.10;99.90;;;;;;4965618;28;20042;-76
2023/10/20 00:09:41;;;;;;;2.60;1.10;;;15.10;99.90;;;;;;4970338;28;20025;-75
2023/10/20 00:12:07;;;;;;;2.22;1.33;;;15.00;99.90;;;;;;4971633;28;20027;-74
2023/10/20 00:14:33;;;;;;;2.63;1.40;;;15.10;99.90;;;;;;4969747;28;20026;-75
2023/10/20 00:16:59;;;;;;;3.40;1.13;;;15.10;99.90;;;;;;4967551;28;20037;-75
2023/10/20 00:19:24;;;;;;;1.30;1.02;;;15.10;99.90;;;;;;4943890;28;20031;-74
2023/10/20 00:21:52;;;;;;;4.93;1.13;;;15.10;99.90;;;;;;4952241;28;20068;-74
2023/10/20 00:24:18;;;;;;;3.30;1.40;;;15.10;99.90;;;;;;4967088;28;20027;-73
2023/10/20 00:26:43;;;;;;;5.60;1.48;;;15.10;99.90;;;;;;4966364;28;20035;-73
2023/10/20 00:29:09;;;;;;;3.10;1.60;;;15.10;99.90;;;;;;4950929;28;20081;-73
2023/10/20 00:31:35;;;;;;;3.85;1.58;;;15.10;99.90;;;;;;4955669;28;20027;-74
2023/10/20 00:34:00;;;;;;;4.07;1.65;;;15.10;99.90;;;;;;4964178;28;20023;-73
2023/10/20 00:36:27;;;;;;;5.93;1.95;;;15.10;99.90;;;;;;4960704;28;20030;-73
2023/10/20 00:38:53;;;;;;;5.22;2.53;;;15.00;99.90;;;;;;4952013;28;20041;-73
2023/10/20 00:41:19;;;;;;;4.10;2.00;;;15.00;99.90;;;;;;4966602;28;20482;-72
2023/10/20 00:43:44;;;;;;;4.35;2.65;;;15.00;99.90;;;;;;4969124;28;20454;-75
2023/10/20 00:46:10;;;;;;;5.05;2.47;;;14.90;99.90;;;;;;4955262;28;20026;-76
2023/10/20 00:48:37;;;;;;;4.85;2.53;;;14.90;99.90;;;;;;4951914;28;20031;-75
2023/10/20 00:51:05;;;;;;;5.13;3.30;;;14.90;99.90;;;;;;4951400;28;20039;-76
2023/10/20 00:53:33;;;;;;;7.22;3.55;;;14.80;99.90;;;;;;4965123;28;20063;-76
2023/10/20 00:56:00;;;;;;;3.58;3.10;;;14.80;99.90;;;;;;4950165;28;20038;-75
2023/10/20 00:58:27;;;;;;;4.75;2.80;;;14.70;99.90;;;;;;4965302;28;20101;-76
2023/10/20 01:00:53;;;;;;;4.78;2.90;;;14.70;99.90;;;;;;4964521;28;20515;-75
2023/10/20 01:03:19;;;;;;;5.78;2.20;;;14.70;99.90;;;;;;4968509;28;20030;-76
2023/10/20 01:05:45;;;;;;;3.17;2.22;;;14.70;99.90;;;;;;4949778;28;20404;-74
2023/10/20 01:08:10;;;;;;;3.88;1.92;;;14.60;99.90;;;;;;4963510;28;20027;-74
2023/10/20 01:10:36;;;;;;;2.08;1.50;;;14.60;99.90;;;;;;4966443;28;20478;-74
2023/10/20 01:13:02;;;;;;;3.20;1.35;;;14.60;99.90;;;;;;4955337;28;20125;-75
2023/10/20 01:15:28;;;;;;;5.20;2.28;;;14.60;99.90;;;;;;4969869;28;20073;-74
2023/10/20 01:17:54;;;;;;;4.22;2.35;;;14.60;99.90;;;;;;4973842;28;20156;-73
2023/10/20 01:20:20;;;;;;;5.22;2.10;;;14.60;99.90;;;;;;4967793;28;20065;-74
2023/10/20 01:22:45;;;;;;;4.47;2.45;;;14.60;99.90;;;;;;4968632;28;20047;-74
2023/10/20 01:25:11;;;;;;;3.40;2.05;;;14.60;99.90;;;;;;4962264;28;20037;-74
2023/10/20 01:27:37;;;;;;;5.15;2.33;;;14.60;99.90;;;;;;4968939;28;20352;-73
2023/10/20 01:30:04;;;;;;;4.28;2.00;;;14.60;99.90;;;;;;4965237;28;20057;-75
2023/10/20 01:32:29;;;;;;;4.35;2.13;;;14.60;99.90;;;;;;4956025;28;20121;-75
2023/10/20 01:34:55;;;;;;;4.05;1.77;;;14.60;99.90;;;;;;4963899;28;20105;-75
2023/10/20 01:37:21;;;;;;;2.42;1.55;;;14.60;99.90;;;;;;4967944;28;20145;-76
2023/10/20 01:39:47;;;;;;;2.67;1.52;;;14.50;99.90;;;;;;4967651;28;20029;-76
2023/10/20 01:42:13;;;;;;;5.40;1.80;;;14.50;99.90;;;;;;4965470;28;21266;-75
2023/10/20 01:44:39;;;;;;;3.17;2.00;;;14.50;99.90;;;;;;4964114;28;20027;-76
2023/10/20 01:47:05;;;;;;;3.17;1.50;;;14.50;99.90;;;;;;4953105;28;20778;-73
2023/10/20 01:49:31;;;;;;;4.57;2.10;;;14.50;99.90;;;;;;4961377;28;20089;-73
2023/10/20 01:51:56;;;;;;;2.45;1.70;;;14.50;99.90;;;;;;4950934;28;20023;-73
2023/10/20 01:54:23;;;;;;;2.65;1.80;;;14.40;99.90;;;;;;4964605;28;20081;-73
2023/10/20 01:56:49;;;;;;;6.15;2.70;;;14.40;99.90;;;;;;4952946;28;20030;-72
2023/10/20 01:59:15;;;;;;;4.65;2.33;;;14.40;99.90;;;;;;4967609;28;20102;-73
2023/10/20 02:01:41;;;;;;;5.15;2.70;;;14.40;99.90;;;;;;4967682;28;20030;-75
2023/10/20 02:04:07;;;;;;;6.18;2.92;;;14.40;99.90;;;;;;4979055;28;20045;-74
2023/10/20 02:06:33;;;;;;;4.65;3.03;;;14.40;99.90;;;;;;4952727;28;20036;-75
2023/10/20 02:08:59;;;;;;;4.18;2.58;;;14.30;99.90;;;;;;4965258;28;20022;-75
2023/10/20 02:11:26;;;;;;;4.63;2.75;;;14.30;99.90;;;;;;4947768;28;20066;-75
2023/10/20 02:13:51;;;;;;;5.13;2.97;;;14.30;99.90;;;;;;4955790;28;20065;-73
2023/10/20 02:16:17;;;;;;;4.32;2.78;;;14.30;99.90;;;;;;4967259;28;20034;-72
2023/10/20 02:18:43;;;;;;;4.10;2.78;;;14.30;99.90;;;;;;4950418;28;20023;-74
2023/10/20 02:21:09;;;;;;;4.75;2.80;;;14.30;99.90;;;;;;4968081;28;20058;-74
2023/10/20 02:23:36;;;;;;;5.68;3.20;;;14.20;99.90;;;;;;4971898;28;20045;-75
2023/10/20 02:26:07;;;;;;;5.82;2.75;;;14.30;99.90;;;;;;4966074;28;20617;-75
2023/10/20 02:28:33;;;;;;;13.25;2.88;;;14.30;99.90;;;;;;4951156;28;20031;-75
2023/10/20 02:31:00;;;;;;;8.07;3.42;;;14.30;99.90;;;;;;4972106;28;20026;-75
2023/10/20 02:33:26;;;;;;;4.70;3.28;;;14.30;99.90;;;;;;4968218;28;20186;-74
2023/10/20 02:35:54;;;;;;;5.07;2.63;;;14.20;99.90;;;;;;4968225;28;20513;-75
2023/10/20 02:38:20;;;;;;;3.53;2.88;;;14.20;99.90;;;;;;4967767;28;20023;-74
2023/10/20 02:40:52;;;;;;;4.22;3.08;;;14.20;99.90;;;;;;4951565;28;20029;-74
2023/10/20 02:43:18;;;;;;;5.22;3.22;;;14.20;99.90;;;;;;4968764;28;20035;-74
2023/10/20 02:45:52;;;;;;;4.75;3.33;;;14.20;99.90;;;;;;4972653;28;20026;-74
2023/10/20 02:48:19;;;;;;;4.25;3.00;;;14.20;99.90;;;;;;4965405;28;20043;-73
2023/10/20 02:50:45;;;;;;;5.68;3.60;;;14.20;99.90;;;;;;4972930;28;20038;-73
2023/10/20 02:53:11;;;;;;;6.60;3.80;;;14.20;99.90;;;;;;4971616;28;20035;-73
2023/10/20 02:55:40;;;;;;;8.85;3.67;;;14.20;99.90;;;;;;4952016;28;20088;-73
2023/10/20 02:58:05;;;;;;;7.63;3.67;;;14.20;99.90;;;;;;4967838;28;20110;-72
2023/10/20 03:00:33;;;;;;;5.78;3.78;;;14.20;99.90;;;;;;4967496;28;20165;-73
2023/10/20 03:02:58;;;;;;;7.03;4.25;;;14.10;99.90;;;;;;4958293;28;20081;-74
2023/10/20 03:05:29;;;;;;;9.10;5.40;;;14.10;99.90;;;;;;4963691;28;20055;-73
2023/10/20 03:07:58;;;;;;;6.78;4.82;;;14.10;99.90;;;;;;4970045;28;20030;-73
2023/10/20 03:10:25;;;;;;;6.53;4.05;;;14.10;99.90;;;;;;4968017;28;20120;-74
2023/10/20 03:12:50;;;;;;;7.45;4.85;;;14.10;99.90;;;;;;4971334;28;20035;-74
2023/10/20 03:15:16;;;;;;;7.80;4.95;;;14.00;99.90;;;;;;4967428;28;20049;-74
2023/10/20 03:17:42;;;;;;;7.60;5.13;;;14.10;99.90;;;;;;4968633;28;20034;-74
2023/10/20 03:20:09;;;;;;;10.43;5.20;;;14.00;99.90;;;;;;4966626;28;20033;-74
2023/10/20 03:22:37;;;;;;;9.57;5.90;;;14.00;99.90;;;;;;4968642;28;20415;-74
2023/10/20 03:25:03;;;;;;;11.23;5.47;;;14.00;99.90;;;;;;4967295;28;20225;-74
2023/10/20 03:27:30;;;;;;;6.95;5.03;;;14.00;99.90;;;;;;4969039;28;20474;-74
2023/10/20 03:29:56;;;;;;;11.18;5.72;;;14.00;99.90;;;;;;4968141;28;20395;-73
2023/10/20 03:32:21;;;;;;;9.32;5.38;;;14.00;99.90;;;;;;4969036;28;20110;-75
2023/10/20 03:34:47;;;;;;;8.00;5.60;;;14.00;99.90;;;;;;4955729;28;20081;-75
2023/10/20 03:37:13;;;;;;;10.45;5.82;;;14.00;99.90;;;;;;4957191;28;20394;-74
2023/10/20 03:39:39;;;;;;;7.40;5.72;;;13.90;99.90;;;;;;4966293;28;20046;-74
2023/10/20 03:42:07;;;;;;;11.45;5.55;;;13.90;99.90;;;;;;4953184;28;20038;-74
2023/10/20 03:44:33;;;;;;;9.55;6.40;;;13.90;99.90;;;;;;4967434;28;20050;-74
2023/10/20 03:46:59;;;;;;;8.70;5.32;;;13.90;99.90;;;;;;4968153;28;20036;-73
2023/10/20 03:49:26;;;;;;;7.35;5.10;;;13.90;99.90;;;;;;4966396;28;20718;-74
2023/10/20 03:51:51;;;;;;;8.50;6.03;;;13.90;99.90;;;;;;4966383;28;20458;-73
2023/10/20 03:54:18;;;;;;;7.80;5.50;;;13.90;99.90;;;;;;4968027;28;20113;-74
2023/10/20 03:56:45;;;;;;;10.00;5.35;;;13.90;99.90;;;;;;4966014;28;20034;-73
2023/10/20 03:59:11;;;;;;;8.30;5.97;;;13.90;99.90;;;;;;4966237;28;22086;-73
2023/10/20 04:01:38;;;;;;;7.22;5.10;;;13.90;99.90;;;;;;4951021;28;20058;-73
2023/10/20 04:04:08;;;;;;;8.05;3.83;;;13.90;99.90;;;;;;4966669;28;20117;-73
2023/10/20 04:06:35;;;;;;;7.72;3.88;;;13.80;99.90;;;;;;4967211;28;20490;-74
2023/10/20 04:09:02;;;;;;;5.75;4.00;;;13.80;99.90;;;;;;4965856;28;20026;-73
2023/10/20 04:11:29;;;;;;;7.35;3.92;;;13.70;99.90;;;;;;4965116;28;20106;-73
2023/10/20 04:13:55;;;;;;;5.63;3.45;;;13.70;99.90;;;;;;4967290;28;20044;-74
2023/10/20 04:16:23;;;;;;;5.25;3.30;;;13.70;99.90;;;;;;4952719;28;20494;-74
2023/10/20 04:18:48;;;;;;;5.30;3.83;;;13.60;99.90;;;;;;4969734;28;20026;-74
2023/10/20 04:21:14;;;;;;;7.05;3.53;;;13.60;99.90;;;;;;4962413;28;20035;-76
2023/10/20 04:23:40;;;;;;;6.78;3.95;;;13.50;99.90;;;;;;4966407;28;20390;-76
2023/10/20 04:26:18;;;;;;;7.03;4.20;;;13.50;99.90;;;;;;4953603;28;20477;-76
2023/10/20 04:28:44;;;;;;;5.57;3.78;;;13.50;99.90;;;;;;4970516;28;20023;-76
2023/10/20 04:48:07;;;;;;;7.38;4.68;;;13.60;99.90;;;;;;4963980;28;20081;-76
2023/10/20 04:56:21;;;;;;;8.35;4.50;;;13.60;99.90;;;;;;4972490;28;20414;-74
2023/10/20 04:58:49;;;;;;;6.53;4.53;;;13.60;99.90;;;;;;4963194;28;20050;-74
2023/10/20 05:01:07;;;;;;;6.60;4.53;;;13.60;99.90;;;;;;4970803;28;20042;-74
2023/10/20 05:03:46;;;;;;;11.82;5.47;;;13.50;99.90;;;;;;4968971;28;20027;-75
2023/10/20 05:06:25;;;;;;;9.80;5.45;;;13.50;99.90;;;;;;4962425;28;20019;-73
2023/10/20 05:08:51;;;;;;;9.60;6.03;;;13.50;99.90;;;;;;4967089;28;20026;-74
2023/10/20 05:11:17;;;;;;;9.98;5.07;;;13.50;99.90;;;;;;4969240;28;20034;-73
2023/10/20 05:13:43;;;;;;;8.57;5.45;;;13.50;99.90;;;;;;4965917;28;20035;-73
2023/10/20 05:16:14;;;;;;;7.85;5.65;;;13.50;99.90;;;;;;4966585;28;20478;-74
2023/10/20 05:18:40;;;;;;;12.23;6.43;;;13.60;99.90;;;;;;4967248;28;20177;-74
2023/10/20 05:21:08;;;;;;;8.98;6.53;;;13.50;99.90;;;;;;4955495;28;20518;-73
2023/10/20 05:23:34;;;;;;;13.23;7.05;;;13.60;99.90;;;;;;4963449;28;20031;-74
2023/10/20 05:26:02;;;;;;;10.75;7.03;;;13.60;99.90;;;;;;4968302;28;20046;-73
2023/10/20 05:28:29;;;;;;;12.18;7.15;;;13.60;99.90;;;;;;4948165;28;20027;-73
2023/10/20 05:30:54;;;;;;;10.48;7.00;;;13.60;99.90;;;;;;4955851;28;20088;-75
2023/10/20 05:33:20;;;;;;;11.10;7.53;;;13.60;99.90;;;;;;4959461;28;20113;-75
2023/10/20 05:35:46;;;;;;;9.40;6.70;;;13.60;99.90;;;;;;4963777;28;20549;-75
2023/10/20 05:38:12;;;;;;;9.20;6.88;;;13.50;99.90;;;;;;4962608;28;20031;-73
2023/10/20 05:40:37;;;;;;;13.98;7.55;;;13.50;99.90;;;;;;4963405;28;20041;-74
2023/10/20 05:43:05;;;;;;;9.23;6.90;;;13.50;99.90;;;;;;4964020;28;20026;-74
2023/10/20 05:45:37;;;;;;;11.77;7.00;;;13.50;99.90;;;;;;4947648;28;20670;-74
2023/10/20 05:48:05;;;;;;;11.00;7.65;;;13.50;99.90;;;;;;4958905;28;20031;-74
2023/10/20 05:50:36;;;;;;;12.65;7.80;;;13.50;99.90;;;;;;4960739;28;20046;-73
2023/10/20 05:53:03;;;;;;;10.50;7.30;;;13.50;99.90;;;;;;4967166;28;20043;-73
2023/10/20 05:55:28;;;;;;;11.88;7.38;;;13.50;99.90;;;;;;4961599;28;20026;-73
2023/10/20 05:57:54;;;;;;;10.98;7.18;;;13.50;99.90;;;;;;4947757;28;20486;-74
2023/10/20 06:00:20;;;;;;;11.02;6.72;;;13.50;99.90;;;;;;4960853;28;20401;-73
2023/10/20 06:02:46;;;;;;;12.15;7.45;;;13.50;99.90;;;;;;4964348;28;20038;-75
2023/10/20 06:05:13;;;;;;;9.52;6.57;;;13.40;99.90;;;;;;4960152;28;20428;-72
2023/10/20 06:07:41;;;;;;;11.57;6.93;;;13.40;99.90;;;;;;4950537;28;20023;-74
2023/10/20 06:10:08;;;;;;;12.00;7.90;;;13.40;99.90;;;;;;4946486;28;20030;-74
2023/10/20 06:12:34;;;;;;;14.32;8.57;;;13.40;99.90;;;;;;4963168;28;20026;-73
2023/10/20 06:14:59;;;;;;;12.10;8.57;;;13.40;99.90;;;;;;4962474;28;20026;-74
2023/10/20 06:17:25;;;;;;;11.18;8.52;;;13.40;99.90;;;;;;4961197;28;20084;-72
2023/10/20 06:19:51;;;;;;;12.13;8.80;;;13.30;99.90;;;;;;4959447;28;20121;-72
2023/10/20 06:22:16;;;;;;;14.38;8.68;;;13.30;99.90;;;;;;4969439;28;20108;-73
2023/10/20 06:24:43;;;;;;;14.38;9.60;;;13.40;99.90;;;;;;4970688;28;20027;-71
2023/10/20 06:27:09;;;;;;;13.63;8.50;;;13.30;99.90;;;;;;4971215;28;20027;-72
2023/10/20 06:29:49;;;;;;;16.08;9.15;;;13.30;99.90;;;;;;4972813;28;20632;-73
2023/10/20 06:32:32;;;;;;;16.17;8.52;;;13.30;99.90;;;;;;4956407;28;20034;-74
2023/10/20 06:35:00;;;;;;;12.93;8.85;;;13.30;99.90;;;;;;4971931;28;20630;-74
2023/10/20 06:37:35;;;;;;;11.52;8.65;;;13.30;99.90;;;;;;4975495;28;20026;-73
2023/10/20 06:40:03;;;;;;;16.55;9.63;;;13.30;99.90;;;;;;4983888;28;20015;-75
2023/10/20 06:42:29;;;;;;;13.93;10.17;;;13.40;99.90;;;;;;4964451;28;20030;-74
2023/10/20 06:44:55;;;;;;;13.90;9.85;;;13.30;99.90;;;;;;4965016;28;20030;-75
2023/10/20 06:47:21;;;;;;;14.40;9.95;;;13.30;99.90;;;;;;4973481;28;20209;-74
2023/10/20 06:49:47;;;;;;;13.38;9.85;;;13.30;99.90;;;;;;4972525;28;20018;-74
2023/10/20 06:52:17;;;;;;;16.42;11.00;;;13.30;99.90;;;;;;4974170;28;20035;-74
2023/10/20 06:54:48;;;;;;;17.70;10.65;;;13.30;99.90;;;;;;4976270;28;20073;-74
2023/10/20 06:57:14;;;;;;;14.88;10.55;;;13.30;99.90;;;;;;4973755;28;20026;-74
2023/10/20 06:59:40;;;;;;;17.42;10.18;;;13.30;99.90;;;;;;4960123;28;21316;-74
2023/10/20 07:02:06;;;;;;;15.57;10.43;;;13.30;99.90;;;;;;4973930;28;20031;-74
2023/10/20 07:04:31;;;;;;;16.48;10.70;;;13.40;99.90;;;;;;4973060;28;20066;-74
2023/10/20 07:06:57;;;;;;;19.73;10.80;;;13.30;99.90;;;;;;4973595;28;20026;-74
2023/10/20 07:09:23;;;;;;;16.15;10.30;;;13.30;99.90;;;;;;4974652;28;20031;-74
2023/10/20 07:11:49;;;;;;;16.08;11.13;;;13.40;99.90;;;;;;4977076;28;20057;-73
2023/10/20 07:14:15;;;;;;;17.65;11.00;;;13.40;99.90;;;;;;4972043;28;20107;-74
2023/10/20 07:16:41;;;;;;;17.70;11.73;;;13.40;99.90;;;;;;4977198;28;20027;-76
2023/10/20 07:19:08;;;;;;;17.60;11.45;;;13.40;99.90;;;;;;4970043;28;20042;-75
2023/10/20 07:21:34;;;;;;;17.17;11.15;;;13.40;99.90;;;;;;4979024;28;20442;-75
2023/10/20 07:24:03;;;;;;;16.08;11.68;;;13.40;99.90;;;;;;4957474;28;20113;-75
2023/10/20 07:26:29;;;;;;;17.73;12.15;;;13.40;99.90;;;;;;4973216;28;20033;-75
2023/10/20 07:28:54;;;;;;;24.92;12.40;;;13.40;99.90;;;;;;4974773;28;20629;-76
2023/10/20 07:31:21;;;;;;;18.27;11.15;;;13.40;99.90;;;;;;4969542;28;20034;-76
2023/10/20 07:33:49;;;;;;;17.40;11.45;;;13.40;99.90;;;;;;4973484;28;20386;-76
2023/10/20 07:36:15;;;;;;;16.73;11.10;;;13.40;99.90;;;;;;4970240;28;20033;-75
2023/10/20 07:38:42;;;;;;;18.40;12.35;;;13.40;99.90;;;;;;4971976;28;21498;-76
2023/10/20 07:41:11;;;;;;;18.40;10.95;;;13.50;99.90;;;;;;4972274;28;20026;-76
2023/10/20 07:43:37;;;;;;;16.67;12.00;;;13.50;99.90;;;;;;4971444;28;20524;-75
2023/10/20 07:46:03;;;;;;;18.42;12.43;;;13.50;99.90;;;;;;4954618;28;20023;-76
2023/10/20 07:48:32;;;;;;;18.90;11.70;;;13.50;99.90;;;;;;4969402;28;20098;-75
2023/10/20 07:50:59;;;;;;;21.08;11.85;;;13.50;99.90;;;;;;4953754;28;20398;-76
2023/10/20 07:53:25;;;;;;;19.52;11.15;;;13.50;99.90;;;;;;4965065;28;20023;-75
2023/10/20 07:55:51;;;;;;;18.58;11.32;;;13.50;99.90;;;;;;4970813;28;20066;-75
2023/10/20 07:58:17;;;;;;;14.80;10.98;;;13.60;99.90;;;;;;4970821;28;20071;-75
2023/10/20 08:00:42;;;;;;;18.00;11.77;;;13.70;99.90;;;;;;4967398;28;20096;-74
2023/10/20 08:03:11;;;;;;;15.23;10.88;;;13.70;99.90;;;;;;4971839;28;20034;-75
2023/10/20 08:05:37;;;;;;;16.38;11.75;;;13.70;99.90;;;;;;4958680;28;20094;-75
2023/10/20 08:08:04;;;;;;;18.10;11.40;;;13.70;99.90;;;;;;4960808;28;20026;-75
2023/10/20 08:10:33;;;;;;;16.27;11.38;;;13.80;99.90;;;;;;4970792;28;20030;-75
2023/10/20 08:12:59;;;;;;;15.88;11.90;;;13.80;99.90;;;;;;4972593;28;20027;-75
2023/10/20 08:15:28;;;;;;;15.85;12.05;;;13.90;99.90;;;;;;4968290;28;20590;-75
2023/10/20 08:17:55;;;;;;;17.13;12.20;;;13.90;99.90;;;;;;4969445;28;20390;-74
2023/10/20 08:20:21;;;;;;;20.45;13.55;;;13.90;99.90;;;;;;4972479;28;20022;-75
2023/10/20 08:22:47;;;;;;;19.48;12.60;;;14.00;99.90;;;;;;4973516;28;20397;-74
2023/10/20 08:25:13;;;;;;;19.58;13.00;;;13.90;99.90;;;;;;4970464;28;20023;-74
2023/10/20 08:27:39;;;;;;;16.75;11.60;;;14.00;99.90;;;;;;4959437;28;20371;-74
2023/10/20 08:30:05;;;;;;;16.30;11.88;;;14.00;99.90;;;;;;4967701;28;20152;-76
2023/10/20 08:32:31;;;;;;;15.65;11.82;;;14.00;99.90;;;;;;4972584;28;20030;-75
2023/10/20 08:34:58;;;;;;;14.60;10.27;;;14.10;99.90;;;;;;4967490;28;20114;-75
2023/10/20 08:37:25;;;;;;;15.48;10.65;;;14.20;99.90;;;;;;4969212;28;20026;-75
2023/10/20 08:39:50;;;;;;;13.52;10.95;;;14.30;99.90;;;;;;4956440;28;20019;-76
2023/10/20 08:42:17;;;;;;;16.27;9.98;;;14.40;99.90;;;;;;4967786;28;20473;-75
2023/10/20 08:44:44;;;;;;;13.35;8.68;;;14.40;99.90;;;;;;4958796;28;20096;-76
2023/10/20 08:47:14;;;;;;;14.70;10.05;;;14.40;99.90;;;;;;4953118;28;20027;-75
2023/10/20 08:49:40;;;;;;;11.93;8.57;;;14.50;99.90;;;;;;4968116;28;20035;-75
2023/10/20 08:52:10;;;;;;;11.85;8.32;;;14.50;99.90;;;;;;4969811;28;20026;-75
2023/10/20 08:54:36;;;;;;;13.02;8.02;;;14.60;99.90;;;;;;4970512;28;20486;-75
2023/10/20 08:57:02;;;;;;;14.60;7.88;;;14.60;99.90;;;;;;4957672;28;20027;-75
2023/10/20 08:59:28;;;;;;;14.73;7.80;;;14.70;99.90;;;;;;4966498;28;20031;-75
2023/10/20 09:01:54;;;;;;;13.23;7.85;;;14.80;99.90;;;;;;4955099;28;20042;-75
2023/10/20 09:04:29;;;;;;;11.15;7.18;;;14.80;99.90;;;;;;4953754;28;20045;-75
2023/10/20 09:06:55;;;;;;;8.30;6.43;;;14.90;99.90;;;;;;4960322;28;20015;-75
2023/10/20 09:09:21;;;;;;;9.18;6.20;;;14.90;99.90;;;;;;4971036;28;20153;-76
2023/10/20 09:11:47;;;;;;;7.80;5.75;;;14.90;99.90;;;;;;4955038;28;20475;-75
2023/10/20 09:14:14;;;;;;;10.27;6.05;;;14.90;99.90;;;;;;4954244;28;20030;-75
2023/10/20 09:16:40;;;;;;;7.20;5.57;;;15.00;99.90;;;;;;4969807;28;20038;-76
2023/10/20 09:19:09;;;;;;;7.40;4.60;;;15.00;99.90;;;;;;4969492;28;20189;-75
2023/10/20 09:21:39;;;;;;;7.47;4.80;;;15.00;99.90;;;;;;4970596;28;20054;-75
2023/10/20 09:24:07;;;;;;;5.90;4.43;;;15.00;99.90;;;;;;4966348;28;20455;-75
2023/10/20 09:26:38;;;;;;;8.20;4.68;;;15.10;99.90;;;;;;4967213;28;20027;-75
2023/10/20 09:29:05;;;;;;;7.50;4.90;;;15.10;99.90;;;;;;4970203;28;20481;-75
2023/10/20 09:31:32;;;;;;;9.05;4.85;;;15.20;99.90;;;;;;4967811;28;20034;-76
2023/10/20 09:33:58;;;;;;;6.47;5.38;;;15.20;99.90;;;;;;4971760;28;20054;-76
2023/10/20 09:36:25;;;;;;;8.13;4.35;;;15.20;99.90;;;;;;4971825;28;20114;-75
2023/10/20 09:38:55;;;;;;;6.47;4.95;;;15.30;99.90;;;;;;4969767;28;20048;-75
2023/10/20 09:41:21;;;;;;;8.32;4.28;;;15.30;99.90;;;;;;4953753;28;20453;-75
2023/10/20 09:43:48;;;;;;;10.40;4.55;;;15.50;99.90;;;;;;4968617;28;20023;-75
2023/10/20 09:46:19;;;;;;;8.10;4.38;;;15.60;99.90;;;;;;4968974;28;20033;-75
2023/10/20 09:48:47;;;;;;;5.70;3.80;;;15.70;99.90;;;;;;4967813;28;20108;-75
2023/10/20 09:51:15;;;;;;;8.13;4.10;;;15.70;99.90;;;;;;4964749;28;20106;-75
2023/10/20 09:53:42;;;;;;;5.38;3.95;;;15.80;99.90;;;;;;4969127;28;20030;-76
2023/10/20 09:56:09;;;;;;;5.15;4.10;;;15.90;99.90;;;;;;4966410;28;20031;-76
2023/10/20 09:58:37;;;;;;;5.18;4.10;;;15.90;99.90;;;;;;4969140;28;20098;-75
2023/10/20 10:01:03;;;;;;;7.35;4.22;;;16.00;99.90;;;;;;4949733;28;20038;-75
2023/10/20 10:03:34;;;;;;;6.07;4.25;;;16.00;99.90;;;;;;4954767;28;20026;-75
2023/10/20 10:06:01;;;;;;;6.88;3.63;;;16.10;99.90;;;;;;4958979;28;20019;-75
2023/10/20 10:08:27;;;;;;;5.28;3.50;;;16.10;99.90;;;;;;4955090;28;20073;-75
2023/10/20 10:10:52;;;;;;;6.95;4.05;;;16.20;99.90;;;;;;4951534;28;20025;-75
2023/10/20 10:13:32;;;;;;;4.35;3.00;;;16.30;99.90;;;;;;4965719;28;20453;-76
2023/10/20 10:15:59;;;;;;;6.93;3.78;;;16.30;99.90;;;;;;4970155;28;20026;-76
2023/10/20 10:18:30;;;;;;;5.95;3.80;;;16.40;99.90;;;;;;4968704;28;20486;-75
2023/10/20 10:21:02;;;;;;;4.03;2.72;;;16.50;99.90;;;;;;4955343;28;20062;-76
2023/10/20 10:23:28;;;;;;;5.25;3.17;;;16.50;99.90;;;;;;4954746;28;20027;-75
2023/10/20 10:25:54;;;;;;;5.13;3.40;;;16.60;99.90;;;;;;4952804;28;20027;-75
2023/10/20 10:28:20;;;;;;;4.75;3.45;;;16.60;99.90;;;;;;4967380;28;20019;-75
2023/10/20 10:30:51;;;;;;;5.32;2.75;;;16.70;99.90;;;;;;4968668;28;20030;-75
2023/10/20 10:33:24;;;;;;;4.00;2.70;;;16.70;99.90;;;;;;4968962;28;20030;-75
2023/10/20 10:36:07;;;;;;;4.00;2.55;;;16.70;99.90;;;;;;4970104;28;20033;-75
2023/10/20 10:38:42;;;;;;;2.90;2.30;;;16.80;99.90;;;;;;4952903;28;20031;-76
2023/10/20 10:41:07;;;;;;;2.95;2.08;;;16.80;99.90;;;;;;4961304;28;20034;-76
2023/10/20 10:43:33;;;;;;;2.58;2.13;;;16.90;99.90;;;;;;4953840;28;20030;-75
2023/10/20 10:45:59;;;;;;;4.20;2.78;;;16.90;99.90;;;;;;4970939;28;20022;-75
2023/10/20 10:48:29;;;;;;;3.65;2.47;;;16.90;99.90;;;;;;4966008;28;20068;-75
2023/10/20 10:50:55;;;;;;;6.88;2.53;;;16.90;99.90;;;;;;4952933;28;20224;-75
2023/10/20 10:53:21;;;;;;;4.88;2.50;;;17.00;99.90;;;;;;4970055;28;20077;-75
2023/10/20 10:55:47;;;;;;;4.93;2.50;;;17.00;99.90;;;;;;4969632;28;20034;-77
2023/10/20 10:58:14;;;;;;;2.88;2.10;;;17.00;99.90;;;;;;4956483;28;20398;-75
2023/10/20 11:00:41;;;;;;;4.18;2.05;;;17.00;99.90;;;;;;4971881;28;20030;-75
2023/10/20 11:03:08;;;;;;;3.97;2.17;;;17.00;99.90;;;;;;4967422;28;20050;-75
2023/10/20 11:05:34;;;;;;;5.43;2.55;;;17.00;99.90;;;;;;4955877;28;20588;-75
2023/10/20 11:08:05;;;;;;;5.30;2.50;;;17.00;99.90;;;;;;4971805;28;20048;-75
2023/10/20 11:10:34;;;;;;;4.03;2.30;;;17.00;99.90;;;;;;4961475;28;20028;-75
2023/10/20 11:13:05;;;;;;;2.78;1.92;;;17.00;99.90;;;;;;4972468;28;20540;-75
2023/10/20 11:15:32;;;;;;;3.95;2.00;;;17.00;99.90;;;;;;4978153;28;20057;-75
2023/10/20 11:18:00;;;;;;;3.65;1.60;;;17.00;99.90;;;;;;4974715;28;20074;-76
2023/10/20 11:20:33;;;;;;;1.25;0.93;;;17.00;99.90;;;;;;4973834;28;20037;-76
2023/10/20 11:23:00;;;;;;;1.13;0.65;;;17.00;99.90;;;;;;4960840;28;20034;-76
2023/10/20 11:25:26;;;;;;;1.55;0.80;;;17.10;99.90;;;;;;4956776;28;20070;-75
2023/10/20 11:27:56;;;;;;;0.93;0.60;;;17.10;99.90;;;;;;4972362;28;20034;-75
2023/10/20 11:30:34;;;;;;;1.77;0.40;;;17.20;99.90;;;;;;4959380;28;20134;-75
2023/10/20 11:33:01;;;;;;;1.30;0.47;;;17.10;99.90;;;;;;4972613;28;20518;-75
2023/10/20 11:35:27;;;;;;;0.95;0.60;;;17.20;99.90;;;;;;4972291;28;20034;-75
2023/10/20 11:37:54;;;;;;;0.77;0.50;;;17.20;99.90;;;;;;4969026;28;20604;-75
2023/10/20 11:40:21;;;;;;;0.70;0.40;;;17.20;99.90;;;;;;4971686;28;20077;-75
2023/10/20 11:42:48;;;;;;;0.68;0.40;;;17.20;99.90;;;;;;4970054;28;20046;-75
2023/10/20 11:45:14;;;;;;;1.10;0.30;;;17.20;99.90;;;;;;4970565;28;20062;-75
2023/10/20 11:47:40;;;;;;;0.40;0.20;;;17.30;99.90;;;;;;4971057;28;20407;-76
2023/10/20 11:50:18;;;;;;;0.40;0.20;;;17.30;99.90;;;;;;4956934;28;20727;-75
2023/10/20 11:52:44;;;;;;;0.20;0.20;;;17.30;99.90;;;;;;4973827;28;21229;-75
2023/10/20 11:55:11;;;;;;;1.33;0.20;;;17.30;99.90;;;;;;4967343;28;20518;-75
2023/10/20 11:57:38;;;;;;;0.60;0.30;;;17.30;99.90;;;;;;4968760;28;20023;-74
2023/10/20 12:00:13;;;;;;;1.05;0.30;;;17.40;99.90;;;;;;4964524;28;20026;-75
2023/10/20 12:02:40;;;;;;;0.30;0.30;;;17.40;99.90;;;;;;4966957;28;20033;-75
2023/10/20 12:05:06;;;;;;;0.35;0.30;;;17.50;99.90;;;;;;4956437;28;20042;-75
2023/10/20 12:07:32;;;;;;;0.55;0.40;;;17.50;99.90;;;;;;4967681;28;20121;-75
2023/10/20 12:09:58;;;;;;;2.75;0.25;;;17.60;99.90;;;;;;4968257;28;20084;-76
2023/10/20 12:12:24;;;;;;;0.55;0.30;;;17.60;99.90;;;;;;4954016;28;20147;-76
2023/10/20 12:14:50;;;;;;;0.47;0.40;;;17.60;99.90;;;;;;4964620;28;20031;-76
2023/10/20 12:17:15;;;;;;;0.40;0.35;;;17.70;99.90;;;;;;4955974;28;20482;-75
2023/10/20 12:19:41;;;;;;;0.22;0.20;;;17.70;99.90;;;;;;4957832;28;20126;-75
2023/10/20 12:22:08;;;;;;;1.50;0.30;;;17.70;99.90;;;;;;4969981;28;20038;-74
2023/10/20 12:24:35;;;;;;;0.30;0.17;;;17.80;99.90;;;;;;4968046;28;20018;-75
2023/10/20 12:27:01;;;;;;;1.02;0.60;;;17.80;99.90;;;;;;4950948;28;20023;-75
2023/10/20 12:29:28;;;;;;;0.43;0.20;;;17.90;99.90;;;;;;4961711;28;20026;-76
2023/10/20 12:31:54;;;;;;;0.75;0.40;;;18.10;99.90;;;;;;4968110;28;20699;-75
2023/10/20 12:34:19;;;;;;;0.28;0.20;;;18.20;99.90;;;;;;4965458;28;20145;-74
2023/10/20 12:36:45;;;;;;;0.77;0.30;;;18.30;99.90;;;;;;4966396;28;20034;-76
2023/10/20 12:39:17;;;;;;;0.82;0.20;;;18.30;99.90;;;;;;4968335;28;20034;-75
2023/10/20 12:41:47;;;;;;;2.65;0.50;;;18.40;99.90;;;;;;4954254;28;20823;-74
2023/10/20 12:44:13;;;;;;;0.98;0.30;;;18.40;99.90;;;;;;4964667;28;20113;-74
2023/10/20 12:46:39;;;;;;;0.40;0.30;;;18.40;99.90;;;;;;4969347;28;20046;-73
2023/10/20 12:49:06;;;;;;;0.50;0.40;;;18.50;99.90;;;;;;4966982;28;20470;-74
2023/10/20 12:51:36;;;;;;;1.13;0.30;;;18.50;99.90;;;;;;4972321;28;20027;-74
2023/10/20 12:54:03;;;;;;;0.40;0.30;;;18.60;99.90;;;;;;4962984;28;20085;-73
2023/10/20 12:56:30;;;;;;;0.30;0.20;;;18.60;99.90;;;;;;4966266;28;20035;-74
2023/10/20 12:58:56;;;;;;;0.70;0.30;;;18.60;99.90;;;;;;4953701;28;20508;-74
2023/10/20 13:01:21;;;;;;;0.60;0.30;;;18.60;99.90;;;;;;4965513;28;20110;-74
2023/10/20 13:03:48;;;;;;;0.50;0.22;;;18.60;99.90;;;;;;4964192;28;20038;-76
2023/10/20 13:06:14;;;;;;;1.13;0.25;;;18.70;99.90;;;;;;4966226;28;20023;-76